sensor_id;sensor_type;location;lat;lon;timestamp;pressure;altitude;pressure_sealevel;temperature;humidity
29247;BME280;16272;48.188;9.964;2023-06-24T00:01:30;96681.63;;;15.44;74.30
29247;BME280;16272;48.188;9.964;2023-06-24T00:03:57;96691.63;;;15.34;74.66
29247;BME280;16272;48.188;9.964;2023-06-24T00:06:22;96686.31;;;15.42;72.80
29247;BME280;16272;48.188;9.964;2023-06-24T00:08:51;96683.88;;;15.57;73.29
29247;BME280;16272;48.188;9.964;2023-06-24T00:11:17;96682.06;;;15.66;73.25
29247;BME280;16272;48.188;9.964;2023-06-24T00:13:43;96677.66;;;15.48;74.94
29247;BME280;16272;48.188;9.964;2023-06-24T00:16:09;96680.34;;;15.48;73.65
29247;BME280;16272;48.188;9.964;2023-06-24T00:18:36;96681.72;;;15.69;71.62
29247;BME280;16272;48.188;9.964;2023-06-24T00:21:04;96679.47;;;15.82;70.73
29247;BME280;16272;48.188;9.964;2023-06-24T00:23:31;96678.06;;;15.70;72.66
29247;BME280;16272;48.188;9.964;2023-06-24T00:25:59;96680.91;;;15.68;73.02
29247;BME280;16272;48.188;9.964;2023-06-24T00:28:25;96675.31;;;15.88;73.53
29247;BME280;16272;48.188;9.964;2023-06-24T00:30:50;96673.28;;;15.90;71.62
29247;BME280;16272;48.188;9.964;2023-06-24T00:33:15;96678.34;;;15.93;72.81
29247;BME280;16272;48.188;9.964;2023-06-24T00:35:46;96665.25;;;15.82;73.33
29247;BME280;16272;48.188;9.964;2023-06-24T00:38:12;96671.53;;;15.72;73.39
29247;BME280;16272;48.188;9.964;2023-06-24T00:40:37;96661.69;;;15.73;72.21
29247;BME280;16272;48.188;9.964;2023-06-24T00:43:05;96664.47;;;15.55;73.47
29247;BME280;16272;48.188;9.964;2023-06-24T00:45:30;96659.84;;;15.31;74.34
29247;BME280;16272;48.188;9.964;2023-06-24T00:47:57;96660.97;;;15.71;73.14
29247;BME280;16272;48.188;9.964;2023-06-24T00:50:23;96666.31;;;15.62;73.58
29247;BME280;16272;48.188;9.964;2023-06-24T00:52:49;96670.13;;;15.52;73.15
29247;BME280;16272;48.188;9.964;2023-06-24T00:55:16;96662.00;;;15.70;72.47
29247;BME280;16272;48.188;9.964;2023-06-24T00:57:43;96670.94;;;15.87;71.34
29247;BME280;16272;48.188;9.964;2023-06-24T01:00:10;96660.78;;;15.64;73.82
29247;BME280;16272;48.188;9.964;2023-06-24T01:02:40;96665.28;;;15.55;74.28
29247;BME280;16272;48.188;9.964;2023-06-24T01:05:08;96658.97;;;15.65;74.12
29247;BME280;16272;48.188;9.964;2023-06-24T01:07:33;96666.00;;;15.74;74.24
29247;BME280;16272;48.188;9.964;2023-06-24T01:10:01;96659.63;;;15.67;75.11
29247;BME280;16272;48.188;9.964;2023-06-24T01:12:27;96659.00;;;15.73;74.51
29247;BME280;16272;48.188;9.964;2023-06-24T01:14:52;96659.38;;;15.78;73.45
29247;BME280;16272;48.188;9.964;2023-06-24T01:17:35;96658.31;;;15.71;74.33
29247;BME280;16272;48.188;9.964;2023-06-24T01:20:34;96658.19;;;15.80;73.46
29247;BME280;16272;48.188;9.964;2023-06-24T01:32:16;96655.22;;;16.00;73.12
29247;BME280;16272;48.188;9.964;2023-06-24T01:34:50;96655.94;;;16.02;71.97
29247;BME280;16272;48.188;9.964;2023-06-24T01:37:32;96658.56;;;15.86;72.64
29247;BME280;16272;48.188;9.964;2023-06-24T01:40:25;96666.47;;;15.95;71.71
29247;BME280;16272;48.188;9.964;2023-06-24T01:42:51;96660.41;;;16.02;71.98
29247;BME280;16272;48.188;9.964;2023-06-24T01:45:23;96666.81;;;16.09;72.96
29247;BME280;16272;48.188;9.964;2023-06-24T01:47:59;96663.31;;;15.66;75.08
29247;BME280;16272;48.188;9.964;2023-06-24T01:50:25;96660.03;;;15.80;73.72
29247;BME280;16272;48.188;9.964;2023-06-24T01:52:53;96659.47;;;15.68;75.34
29247;BME280;16272;48.188;9.964;2023-06-24T01:55:20;96653.69;;;15.81;73.82
29247;BME280;16272;48.188;9.964;2023-06-24T01:57:48;96657.69;;;15.77;73.63
29247;BME280;16272;48.188;9.964;2023-06-24T02:00:15;96646.25;;;15.67;75.41
29247;BME280;16272;48.188;9.964;2023-06-24T02:02:43;96650.19;;;15.89;74.89
29247;BME280;16272;48.188;9.964;2023-06-24T02:05:11;96651.53;;;15.93;76.26
29247;BME280;16272;48.188;9.964;2023-06-24T02:07:37;96646.50;;;15.90;76.27
29247;BME280;16272;48.188;9.964;2023-06-24T02:10:06;96649.03;;;15.91;77.06
29247;BME280;16272;48.188;9.964;2023-06-24T02:12:32;96648.53;;;15.96;74.85
29247;BME280;16272;48.188;9.964;2023-06-24T02:14:59;96646.03;;;16.03;75.09
29247;BME280;16272;48.188;9.964;2023-06-24T02:17:24;96642.00;;;15.98;76.04
29247;BME280;16272;48.188;9.964;2023-06-24T02:19:52;96642.00;;;16.07;74.38
29247;BME280;16272;48.188;9.964;2023-06-24T02:22:18;96638.66;;;16.05;74.47
29247;BME280;16272;48.188;9.964;2023-06-24T02:24:46;96643.03;;;15.97;74.71
29247;BME280;16272;48.188;9.964;2023-06-24T02:27:13;96642.84;;;15.91;74.46
29247;BME280;16272;48.188;9.964;2023-06-24T02:29:39;96655.06;;;16.02;74.20
29247;BME280;16272;48.188;9.964;2023-06-24T02:32:05;96654.88;;;15.95;74.36
29247;BME280;16272;48.188;9.964;2023-06-24T02:34:31;96648.53;;;15.88;75.13
29247;BME280;16272;48.188;9.964;2023-06-24T02:36:57;96653.03;;;15.79;76.16
29247;BME280;16272;48.188;9.964;2023-06-24T02:39:22;96653.41;;;15.92;75.03
29247;BME280;16272;48.188;9.964;2023-06-24T02:41:48;96648.41;;;16.14;73.96
29247;BME280;16272;48.188;9.964;2023-06-24T02:44:15;96648.88;;;16.01;74.12
29247;BME280;16272;48.188;9.964;2023-06-24T02:46:41;96652.38;;;16.02;73.51
29247;BME280;16272;48.188;9.964;2023-06-24T02:49:08;96656.22;;;15.83;74.12
29247;BME280;16272;48.188;9.964;2023-06-24T02:51:34;96667.13;;;15.97;76.13
29247;BME280;16272;48.188;9.964;2023-06-24T02:54:01;96663.09;;;15.93;77.01
29247;BME280;16272;48.188;9.964;2023-06-24T02:56:27;96666.59;;;15.86;76.21
29247;BME280;16272;48.188;9.964;2023-06-24T02:58:53;96660.09;;;16.05;73.76
29247;BME280;16272;48.188;9.964;2023-06-24T03:01:19;96667.75;;;15.83;75.33
29247;BME280;16272;48.188;9.964;2023-06-24T03:03:53;96660.25;;;15.95;73.43
29247;BME280;16272;48.188;9.964;2023-06-24T03:06:20;96661.28;;;16.02;74.17
29247;BME280;16272;48.188;9.964;2023-06-24T03:08:47;96670.81;;;16.05;73.90
29247;BME280;16272;48.188;9.964;2023-06-24T03:11:13;96658.41;;;15.87;74.32
29247;BME280;16272;48.188;9.964;2023-06-24T03:13:43;96658.91;;;15.83;75.39
29247;BME280;16272;48.188;9.964;2023-06-24T03:16:08;96665.19;;;15.73;75.47
29247;BME280;16272;48.188;9.964;2023-06-24T03:18:46;96672.81;;;15.52;76.99
29247;BME280;16272;48.188;9.964;2023-06-24T03:21:11;96673.84;;;15.59;77.01
29247;BME280;16272;48.188;9.964;2023-06-24T03:23:36;96669.88;;;15.29;77.31
29247;BME280;16272;48.188;9.964;2023-06-24T03:26:02;96676.13;;;15.46;77.35
29247;BME280;16272;48.188;9.964;2023-06-24T03:28:32;96684.16;;;15.46;76.52
29247;BME280;16272;48.188;9.964;2023-06-24T03:30:58;96683.53;;;15.52;76.81
29247;BME280;16272;48.188;9.964;2023-06-24T03:33:24;96683.03;;;15.56;76.22
29247;BME280;16272;48.188;9.964;2023-06-24T03:35:51;96668.19;;;15.70;73.61
29247;BME280;16272;48.188;9.964;2023-06-24T03:38:17;96675.31;;;15.88;73.11
29247;BME280;16272;48.188;9.964;2023-06-24T03:40:42;96676.81;;;15.56;75.75
29247;BME280;16272;48.188;9.964;2023-06-24T03:43:09;96680.00;;;15.51;74.69
29247;BME280;16272;48.188;9.964;2023-06-24T03:45:34;96681.00;;;15.50;74.18
29247;BME280;16272;48.188;9.964;2023-06-24T03:47:59;96678.69;;;15.55;74.63
29247;BME280;16272;48.188;9.964;2023-06-24T03:50:24;96680.88;;;15.60;73.75
29247;BME280;16272;48.188;9.964;2023-06-24T03:52:50;96676.66;;;15.57;74.38
29247;BME280;16272;48.188;9.964;2023-06-24T03:55:15;96676.19;;;15.62;72.96
29247;BME280;16272;48.188;9.964;2023-06-24T03:57:41;96680.66;;;15.45;74.67
29247;BME280;16272;48.188;9.964;2023-06-24T04:00:07;96687.03;;;15.52;74.47
29247;BME280;16272;48.188;9.964;2023-06-24T04:02:42;96681.75;;;15.34;74.86
29247;BME280;16272;48.188;9.964;2023-06-24T04:05:09;96686.31;;;15.42;73.28
29247;BME280;16272;48.188;9.964;2023-06-24T04:07:35;96687.94;;;15.27;75.09
29247;BME280;16272;48.188;9.964;2023-06-24T04:10:01;96691.06;;;15.22;75.79
29247;BME280;16272;48.188;9.964;2023-06-24T04:12:27;96691.66;;;15.42;73.46
29247;BME280;16272;48.188;9.964;2023-06-24T04:14:52;96692.72;;;15.57;73.65
29247;BME280;16272;48.188;9.964;2023-06-24T04:17:18;96698.63;;;15.95;71.53
29247;BME280;16272;48.188;9.964;2023-06-24T04:19:43;96706.00;;;16.18;69.63
29247;BME280;16272;48.188;9.964;2023-06-24T04:22:09;96699.47;;;16.12;71.22
29247;BME280;16272;48.188;9.964;2023-06-24T04:24:35;96705.91;;;15.85;72.03
29247;BME280;16272;48.188;9.964;2023-06-24T04:27:00;96707.16;;;15.65;72.41
29247;BME280;16272;48.188;9.964;2023-06-24T04:29:25;96701.84;;;15.73;73.16
29247;BME280;16272;48.188;9.964;2023-06-24T04:31:50;96713.50;;;15.63;72.43
29247;BME280;16272;48.188;9.964;2023-06-24T04:34:16;96703.81;;;15.71;72.60
29247;BME280;16272;48.188;9.964;2023-06-24T04:36:41;96702.94;;;15.88;73.19
29247;BME280;16272;48.188;9.964;2023-06-24T04:39:06;96711.28;;;15.85;72.77
29247;BME280;16272;48.188;9.964;2023-06-24T04:41:32;96699.13;;;16.07;71.81
29247;BME280;16272;48.188;9.964;2023-06-24T04:43:57;96698.84;;;16.35;70.92
29247;BME280;16272;48.188;9.964;2023-06-24T04:46:23;96708.22;;;17.13;68.86
29247;BME280;16272;48.188;9.964;2023-06-24T04:48:48;96708.59;;;16.94;69.29
29247;BME280;16272;48.188;9.964;2023-06-24T04:51:14;96712.13;;;16.94;68.91
29247;BME280;16272;48.188;9.964;2023-06-24T04:53:39;96703.72;;;17.14;68.85
29247;BME280;16272;48.188;9.964;2023-06-24T04:56:05;96704.38;;;17.24;68.29
29247;BME280;16272;48.188;9.964;2023-06-24T04:58:30;96700.47;;;17.91;67.09
29247;BME280;16272;48.188;9.964;2023-06-24T05:00:55;96699.25;;;17.93;64.92
29247;BME280;16272;48.188;9.964;2023-06-24T05:03:21;96704.22;;;18.13;64.58
29247;BME280;16272;48.188;9.964;2023-06-24T05:05:46;96700.88;;;17.71;64.20
29247;BME280;16272;48.188;9.964;2023-06-24T05:08:11;96707.97;;;17.95;64.46
29247;BME280;16272;48.188;9.964;2023-06-24T05:10:36;96697.78;;;17.91;64.25
29247;BME280;16272;48.188;9.964;2023-06-24T05:13:02;96701.88;;;17.70;64.31
29247;BME280;16272;48.188;9.964;2023-06-24T05:15:27;96696.28;;;17.80;65.95
29247;BME280;16272;48.188;9.964;2023-06-24T05:17:52;96704.94;;;17.59;65.96
29247;BME280;16272;48.188;9.964;2023-06-24T05:20:18;96712.31;;;17.57;66.07
29247;BME280;16272;48.188;9.964;2023-06-24T05:22:43;96711.06;;;17.84;65.74
29247;BME280;16272;48.188;9.964;2023-06-24T05:25:09;96714.25;;;17.79;64.87
29247;BME280;16272;48.188;9.964;2023-06-24T05:27:34;96712.31;;;18.05;65.56
29247;BME280;16272;48.188;9.964;2023-06-24T05:29:59;96712.66;;;18.02;64.68
29247;BME280;16272;48.188;9.964;2023-06-24T05:32:25;96714.13;;;18.12;65.00
29247;BME280;16272;48.188;9.964;2023-06-24T05:34:50;96714.13;;;18.12;64.83
29247;BME280;16272;48.188;9.964;2023-06-24T05:37:15;96709.59;;;18.13;63.98
29247;BME280;16272;48.188;9.964;2023-06-24T05:39:41;96707.56;;;18.38;62.83
29247;BME280;16272;48.188;9.964;2023-06-24T05:42:06;96708.38;;;18.47;62.03
29247;BME280;16272;48.188;9.964;2023-06-24T05:44:31;96713.91;;;17.91;64.37
29247;BME280;16272;48.188;9.964;2023-06-24T05:46:57;96709.66;;;18.28;63.49
29247;BME280;16272;48.188;9.964;2023-06-24T05:49:22;96710.78;;;18.10;64.60
29247;BME280;16272;48.188;9.964;2023-06-24T05:51:48;96710.59;;;18.43;63.29
29247;BME280;16272;48.188;9.964;2023-06-24T05:54:13;96709.72;;;18.43;63.57
29247;BME280;16272;48.188;9.964;2023-06-24T05:56:39;96715.16;;;18.58;63.03
29247;BME280;16272;48.188;9.964;2023-06-24T05:59:04;96711.59;;;18.88;62.65
29247;BME280;16272;48.188;9.964;2023-06-24T06:01:29;96719.66;;;18.65;62.83
29247;BME280;16272;48.188;9.964;2023-06-24T06:03:55;96717.50;;;18.61;62.54
29247;BME280;16272;48.188;9.964;2023-06-24T06:06:20;96715.16;;;18.89;63.83
29247;BME280;16272;48.188;9.964;2023-06-24T06:08:47;96722.22;;;19.05;62.49
29247;BME280;16272;48.188;9.964;2023-06-24T06:11:12;96715.56;;;19.16;62.16
29247;BME280;16272;48.188;9.964;2023-06-24T06:13:37;96716.78;;;18.90;63.27
29247;BME280;16272;48.188;9.964;2023-06-24T06:16:03;96714.78;;;19.07;61.91
29247;BME280;16272;48.188;9.964;2023-06-24T06:18:28;96713.38;;;18.96;61.33
29247;BME280;16272;48.188;9.964;2023-06-24T06:20:54;96714.50;;;19.40;61.46
29247;BME280;16272;48.188;9.964;2023-06-24T06:23:19;96708.16;;;19.62;59.71
29247;BME280;16272;48.188;9.964;2023-06-24T06:25:44;96710.75;;;19.56;59.10
29247;BME280;16272;48.188;9.964;2023-06-24T06:28:10;96707.78;;;19.80;59.75
29247;BME280;16272;48.188;9.964;2023-06-24T06:30:35;96707.97;;;19.64;58.90
29247;BME280;16272;48.188;9.964;2023-06-24T06:33:00;96709.72;;;19.72;61.01
29247;BME280;16272;48.188;9.964;2023-06-24T06:35:26;96709.28;;;19.83;60.30
29247;BME280;16272;48.188;9.964;2023-06-24T06:37:51;96714.13;;;19.73;61.20
29247;BME280;16272;48.188;9.964;2023-06-24T06:40:21;96700.47;;;19.89;59.70
29247;BME280;16272;48.188;9.964;2023-06-24T06:42:46;96700.16;;;19.99;60.12
29247;BME280;16272;48.188;9.964;2023-06-24T06:45:12;96695.31;;;20.09;59.56
29247;BME280;16272;48.188;9.964;2023-06-24T06:47:37;96704.81;;;19.90;59.73
29247;BME280;16272;48.188;9.964;2023-06-24T06:50:03;96708.63;;;19.51;61.38
29247;BME280;16272;48.188;9.964;2023-06-24T06:52:28;96708.06;;;19.71;60.82
29247;BME280;16272;48.188;9.964;2023-06-24T06:54:54;96702.69;;;20.00;58.62
29247;BME280;16272;48.188;9.964;2023-06-24T06:57:19;96707.75;;;20.47;58.08
29247;BME280;16272;48.188;9.964;2023-06-24T06:59:45;96711.22;;;20.41;58.09
29247;BME280;16272;48.188;9.964;2023-06-24T07:02:10;96699.47;;;20.48;58.23
29247;BME280;16272;48.188;9.964;2023-06-24T07:04:35;96697.97;;;20.46;58.56
29247;BME280;16272;48.188;9.964;2023-06-24T07:07:01;96700.31;;;20.12;59.12
29247;BME280;16272;48.188;9.964;2023-06-24T07:09:26;96696.25;;;20.60;60.57
29247;BME280;16272;48.188;9.964;2023-06-24T07:11:51;96700.81;;;20.59;60.24
29247;BME280;16272;48.188;9.964;2023-06-24T07:14:17;96702.22;;;20.55;59.81
29247;BME280;16272;48.188;9.964;2023-06-24T07:16:42;96702.38;;;20.90;60.25
29247;BME280;16272;48.188;9.964;2023-06-24T07:19:09;96694.78;;;20.79;58.56
29247;BME280;16272;48.188;9.964;2023-06-24T07:21:34;96704.19;;;20.83;57.95
29247;BME280;16272;48.188;9.964;2023-06-24T07:23:59;96698.88;;;20.68;56.48
29247;BME280;16272;48.188;9.964;2023-06-24T07:26:25;96694.19;;;20.62;59.09
29247;BME280;16272;48.188;9.964;2023-06-24T07:28:52;96698.47;;;20.34;57.50
29247;BME280;16272;48.188;9.964;2023-06-24T07:31:18;96690.16;;;20.72;56.86
29247;BME280;16272;48.188;9.964;2023-06-24T07:33:43;96687.31;;;21.30;55.47
29247;BME280;16272;48.188;9.964;2023-06-24T07:36:09;96686.31;;;21.38;59.15
29247;BME280;16272;48.188;9.964;2023-06-24T07:38:34;96685.78;;;21.50;58.30
29247;BME280;16272;48.188;9.964;2023-06-24T07:40:59;96687.88;;;21.54;56.02
29247;BME280;16272;48.188;9.964;2023-06-24T07:43:24;96692.56;;;21.74;55.15
29247;BME280;16272;48.188;9.964;2023-06-24T07:45:50;96692.66;;;21.94;55.04
29247;BME280;16272;48.188;9.964;2023-06-24T07:48:15;96691.94;;;22.27;53.96
29247;BME280;16272;48.188;9.964;2023-06-24T07:50:40;96698.50;;;22.66;50.57
29247;BME280;16272;48.188;9.964;2023-06-24T07:53:06;96694.50;;;21.87;54.04
29247;BME280;16272;48.188;9.964;2023-06-24T07:55:31;96685.28;;;22.23;51.47
29247;BME280;16272;48.188;9.964;2023-06-24T07:57:57;96689.72;;;22.37;53.49
29247;BME280;16272;48.188;9.964;2023-06-24T08:00:23;96685.47;;;22.14;54.10
29247;BME280;16272;48.188;9.964;2023-06-24T08:02:49;96689.06;;;22.35;54.04
29247;BME280;16272;48.188;9.964;2023-06-24T08:05:14;96683.44;;;22.30;53.85
29247;BME280;16272;48.188;9.964;2023-06-24T08:07:39;96687.72;;;22.92;51.43
29247;BME280;16272;48.188;9.964;2023-06-24T08:10:05;96694.78;;;22.05;51.53
29247;BME280;16272;48.188;9.964;2023-06-24T08:12:31;96696.19;;;22.43;51.08
29247;BME280;16272;48.188;9.964;2023-06-24T08:14:56;96690.44;;;23.33;47.83
29247;BME280;16272;48.188;9.964;2023-06-24T08:17:22;96687.13;;;23.24;48.08
29247;BME280;16272;48.188;9.964;2023-06-24T08:19:47;96681.69;;;23.24;48.60
29247;BME280;16272;48.188;9.964;2023-06-24T08:22:12;96688.34;;;23.21;50.37
29247;BME280;16272;48.188;9.964;2023-06-24T08:24:39;96685.34;;;23.83;48.20
29247;BME280;16272;48.188;9.964;2023-06-24T08:27:05;96684.09;;;23.65;47.54
29247;BME280;16272;48.188;9.964;2023-06-24T08:29:30;96675.47;;;24.40;46.73
29247;BME280;16272;48.188;9.964;2023-06-24T08:31:55;96681.34;;;24.37;46.45
29247;BME280;16272;48.188;9.964;2023-06-24T08:34:21;96674.03;;;23.93;47.80
29247;BME280;16272;48.188;9.964;2023-06-24T08:36:46;96673.38;;;24.43;46.63
29247;BME280;16272;48.188;9.964;2023-06-24T08:39:11;96671.81;;;24.21;47.07
29247;BME280;16272;48.188;9.964;2023-06-24T08:41:37;96671.91;;;24.79;44.04
29247;BME280;16272;48.188;9.964;2023-06-24T08:44:02;96665.72;;;23.88;46.23
29247;BME280;16272;48.188;9.964;2023-06-24T08:46:28;96672.31;;;24.44;42.74
29247;BME280;16272;48.188;9.964;2023-06-24T08:51:53;96659.84;;;24.74;43.52
29247;BME280;16272;48.188;9.964;2023-06-24T08:54:19;96666.31;;;24.73;45.62
29247;BME280;16272;48.188;9.964;2023-06-24T08:56:45;96671.81;;;24.92;44.98
29247;BME280;16272;48.188;9.964;2023-06-24T08:59:10;96670.97;;;25.42;43.98
29247;BME280;16272;48.188;9.964;2023-06-24T09:01:36;96661.81;;;26.29;40.25
29247;BME280;16272;48.188;9.964;2023-06-24T09:04:01;96654.84;;;26.63;41.44
29247;BME280;16272;48.188;9.964;2023-06-24T09:06:26;96657.38;;;26.46;42.30
29247;BME280;16272;48.188;9.964;2023-06-24T09:08:56;96653.66;;;26.29;39.88
29247;BME280;16272;48.188;9.964;2023-06-24T09:11:28;96657.13;;;26.66;40.69
29247;BME280;16272;48.188;9.964;2023-06-24T09:14:00;96645.03;;;26.74;40.34
29247;BME280;16272;48.188;9.964;2023-06-24T09:16:26;96652.69;;;26.53;39.04
29247;BME280;16272;48.188;9.964;2023-06-24T09:18:52;96643.41;;;26.42;39.36
29247;BME280;16272;48.188;9.964;2023-06-24T09:21:24;96643.84;;;25.72;40.38
29247;BME280;16272;48.188;9.964;2023-06-24T09:23:57;96642.72;;;24.67;41.37
29247;BME280;16272;48.188;9.964;2023-06-24T09:26:27;96640.91;;;25.11;43.28
29247;BME280;16272;48.188;9.964;2023-06-24T09:28:53;96632.25;;;27.81;38.63
29247;BME280;16272;48.188;9.964;2023-06-24T09:31:19;96629.59;;;27.45;37.90
29247;BME280;16272;48.188;9.964;2023-06-24T09:33:45;96628.13;;;26.95;39.11
29247;BME280;16272;48.188;9.964;2023-06-24T09:36:11;96629.41;;;27.99;36.98
29247;BME280;16272;48.188;9.964;2023-06-24T09:38:38;96628.94;;;26.84;36.99
29247;BME280;16272;48.188;9.964;2023-06-24T09:41:06;96636.47;;;25.98;38.05
29247;BME280;16272;48.188;9.964;2023-06-24T09:43:35;96634.47;;;25.31;39.09
29247;BME280;16272;48.188;9.964;2023-06-24T09:46:05;96627.69;;;25.59;39.88
29247;BME280;16272;48.188;9.964;2023-06-24T09:48:31;96621.91;;;26.22;38.05
29247;BME280;16272;48.188;9.964;2023-06-24T09:51:00;96614.16;;;27.27;37.28
29247;BME280;16272;48.188;9.964;2023-06-24T09:53:33;96619.50;;;27.46;37.81
29247;BME280;16272;48.188;9.964;2023-06-24T09:56:01;96612.34;;;28.21;35.83
29247;BME280;16272;48.188;9.964;2023-06-24T09:58:31;96611.19;;;27.29;37.02
29247;BME280;16272;48.188;9.964;2023-06-24T10:00:57;96609.44;;;27.87;36.80
29247;BME280;16272;48.188;9.964;2023-06-24T10:03:26;96604.28;;;27.74;36.44
29247;BME280;16272;48.188;9.964;2023-06-24T10:05:52;96615.22;;;27.14;37.62
29247;BME280;16272;48.188;9.964;2023-06-24T10:08:18;96621.50;;;25.70;41.22
29247;BME280;16272;48.188;9.964;2023-06-24T10:10:43;96616.88;;;27.04;39.17
29247;BME280;16272;48.188;9.964;2023-06-24T10:13:09;96613.34;;;27.39;40.32
29247;BME280;16272;48.188;9.964;2023-06-24T10:15:35;96603.09;;;28.10;39.02
29247;BME280;16272;48.188;9.964;2023-06-24T10:18:02;96606.56;;;28.05;38.29
29247;BME280;16272;48.188;9.964;2023-06-24T10:20:28;96601.59;;;28.31;35.87
29247;BME280;16272;48.188;9.964;2023-06-24T10:22:54;96603.56;;;27.78;38.08
29247;BME280;16272;48.188;9.964;2023-06-24T10:25:20;96593.22;;;28.84;34.57
29247;BME280;16272;48.188;9.964;2023-06-24T10:27:53;96600.53;;;28.03;38.71
29247;BME280;16272;48.188;9.964;2023-06-24T10:30:20;96590.66;;;28.77;35.67
29247;BME280;16272;48.188;9.964;2023-06-24T10:32:51;96587.03;;;27.97;33.65
29247;BME280;16272;48.188;9.964;2023-06-24T10:35:26;96595.81;;;27.87;35.42
29247;BME280;16272;48.188;9.964;2023-06-24T10:38:01;96585.19;;;28.60;35.35
29247;BME280;16272;48.188;9.964;2023-06-24T10:40:36;96577.41;;;27.30;35.44
29247;BME280;16272;48.188;9.964;2023-06-24T10:43:24;96576.75;;;28.16;35.59
29247;BME280;16272;48.188;9.964;2023-06-24T10:45:58;96573.13;;;28.44;34.27
29247;BME280;16272;48.188;9.964;2023-06-24T10:48:24;96572.56;;;29.10;33.82
29247;BME280;16272;48.188;9.964;2023-06-24T10:50:50;96572.19;;;27.93;33.90
29247;BME280;16272;48.188;9.964;2023-06-24T10:53:16;96565.91;;;28.21;34.19
29247;BME280;16272;48.188;9.964;2023-06-24T10:55:44;96570.03;;;29.81;34.29
29247;BME280;16272;48.188;9.964;2023-06-24T10:58:12;96566.44;;;28.52;34.71
29247;BME280;16272;48.188;9.964;2023-06-24T11:00:39;96556.94;;;29.44;34.33
29247;BME280;16272;48.188;9.964;2023-06-24T11:03:11;96554.84;;;28.45;32.96
29247;BME280;16272;48.188;9.964;2023-06-24T11:05:41;96555.28;;;27.67;32.90
29247;BME280;16272;48.188;9.964;2023-06-24T11:08:07;96552.38;;;27.21;35.53
29247;BME280;16272;48.188;9.964;2023-06-24T11:10:33;96555.44;;;27.60;35.12
29247;BME280;16272;48.188;9.964;2023-06-24T11:13:05;96548.72;;;28.37;35.04
29247;BME280;16272;48.188;9.964;2023-06-24T11:15:32;96545.00;;;28.77;32.67
29247;BME280;16272;48.188;9.964;2023-06-24T11:17:57;96539.75;;;29.71;32.75
29247;BME280;16272;48.188;9.964;2023-06-24T11:20:22;96521.72;;;30.24;32.26
29247;BME280;16272;48.188;9.964;2023-06-24T11:22:48;96523.00;;;29.23;33.67
29247;BME280;16272;48.188;9.964;2023-06-24T11:25:20;96529.75;;;28.48;34.57
29247;BME280;16272;48.188;9.964;2023-06-24T11:27:50;96528.03;;;27.84;34.15
29247;BME280;16272;48.188;9.964;2023-06-24T11:30:19;96524.84;;;28.50;35.19
29247;BME280;16272;48.188;9.964;2023-06-24T11:32:44;96524.69;;;28.39;33.49
29247;BME280;16272;48.188;9.964;2023-06-24T11:35:11;96528.47;;;28.67;32.70
29247;BME280;16272;48.188;9.964;2023-06-24T11:37:41;96511.88;;;29.30;31.19
29247;BME280;16272;48.188;9.964;2023-06-24T11:40:08;96502.47;;;29.65;31.60
29247;BME280;16272;48.188;9.964;2023-06-24T11:42:41;96504.56;;;29.36;33.05
29247;BME280;16272;48.188;9.964;2023-06-24T11:45:09;96502.53;;;28.70;31.25
29247;BME280;16272;48.188;9.964;2023-06-24T11:47:37;96502.19;;;28.49;31.84
29247;BME280;16272;48.188;9.964;2023-06-24T11:50:04;96482.31;;;28.88;33.31
29247;BME280;16272;48.188;9.964;2023-06-24T11:52:37;96483.06;;;29.44;32.10
29247;BME280;16272;48.188;9.964;2023-06-24T11:55:03;96489.75;;;28.41;30.81
29247;BME280;16272;48.188;9.964;2023-06-24T11:57:51;96478.19;;;28.68;32.54
29247;BME280;16272;48.188;9.964;2023-06-24T12:00:24;96474.38;;;28.69;32.32
29247;BME280;16272;48.188;9.964;2023-06-24T12:02:54;96474.53;;;28.80;32.85
29247;BME280;16272;48.188;9.964;2023-06-24T12:05:24;96481.56;;;27.79;33.34
29247;BME280;16272;48.188;9.964;2023-06-24T12:07:55;96480.31;;;28.49;32.97
29247;BME280;16272;48.188;9.964;2023-06-24T12:10:21;96479.50;;;28.15;33.65
29247;BME280;16272;48.188;9.964;2023-06-24T12:12:46;96465.91;;;26.69;34.17
29247;BME280;16272;48.188;9.964;2023-06-24T12:15:11;96461.34;;;27.22;33.72
29247;BME280;16272;48.188;9.964;2023-06-24T12:17:36;96464.59;;;28.22;32.75
29247;BME280;16272;48.188;9.964;2023-06-24T12:20:02;96456.84;;;28.65;31.96
29247;BME280;16272;48.188;9.964;2023-06-24T12:22:28;96454.66;;;27.99;32.26
29247;BME280;16272;48.188;9.964;2023-06-24T12:24:53;96452.75;;;28.17;30.06
29247;BME280;16272;48.188;9.964;2023-06-24T12:27:18;96453.00;;;28.66;32.25
29247;BME280;16272;48.188;9.964;2023-06-24T12:29:43;96455.31;;;28.74;33.91
29247;BME280;16272;48.188;9.964;2023-06-24T12:32:09;96436.44;;;29.61;33.76
29247;BME280;16272;48.188;9.964;2023-06-24T12:34:34;96445.91;;;28.65;29.54
29247;BME280;16272;48.188;9.964;2023-06-24T12:36:59;96436.19;;;29.36;32.73
29247;BME280;16272;48.188;9.964;2023-06-24T12:39:24;96434.84;;;29.65;30.24
29247;BME280;16272;48.188;9.964;2023-06-24T12:41:50;96434.00;;;30.19;28.70
29247;BME280;16272;48.188;9.964;2023-06-24T12:44:15;96434.94;;;29.04;28.95
29247;BME280;16272;48.188;9.964;2023-06-24T12:46:40;96428.44;;;28.88;31.86
29247;BME280;16272;48.188;9.964;2023-06-24T12:49:06;96443.56;;;28.23;31.22
29247;BME280;16272;48.188;9.964;2023-06-24T12:51:32;96442.63;;;27.83;32.63
29247;BME280;16272;48.188;9.964;2023-06-24T12:53:58;96435.16;;;28.58;31.80
29247;BME280;16272;48.188;9.964;2023-06-24T12:56:23;96429.50;;;29.26;31.40
29247;BME280;16272;48.188;9.964;2023-06-24T12:58:48;96444.25;;;28.30;30.09
29247;BME280;16272;48.188;9.964;2023-06-24T13:01:14;96439.75;;;27.32;31.42
29247;BME280;16272;48.188;9.964;2023-06-24T13:03:39;96435.38;;;27.31;31.90
29247;BME280;16272;48.188;9.964;2023-06-24T13:06:04;96437.53;;;27.18;32.52
29247;BME280;16272;48.188;9.964;2023-06-24T13:08:30;96436.19;;;26.44;33.78
29247;BME280;16272;48.188;9.964;2023-06-24T13:10:56;96435.81;;;26.76;33.50